createdAt,value
2023-03-07T00:01:36.320Z,6.25
2023-03-07T00:06:38.270Z,5.13
2023-03-07T00:09:09.348Z,5.05
2023-03-07T00:11:41.312Z,2.97
2023-03-07T00:14:12.689Z,5.05
2023-03-07T00:19:14.575Z,23.80
2023-03-07T00:21:45.681Z,4.30
2023-03-07T00:24:17.113Z,4.88
2023-03-07T00:26:48.359Z,4.60
2023-03-07T00:29:19.473Z,4.35
2023-03-07T00:31:51.462Z,5.22
2023-03-07T00:34:23.049Z,7.13
2023-03-07T00:36:55.332Z,4.13
2023-03-07T00:39:26.826Z,4.07
2023-03-07T00:41:58.495Z,4.07
2023-03-07T00:47:02.924Z,4.30
2023-03-07T00:49:34.732Z,4.13
2023-03-07T00:52:06.957Z,5.47
2023-03-07T00:54:38.812Z,6.07
2023-03-07T00:57:10.785Z,4.25
2023-03-07T00:59:42.336Z,4.90
2023-03-07T01:02:13.423Z,4.88
2023-03-07T01:04:44.559Z,11.95
2023-03-07T01:09:48.645Z,8.27
2023-03-07T01:12:20.619Z,7.05
2023-03-07T01:17:25.404Z,6.22
2023-03-07T01:19:56.478Z,6.75
2023-03-07T01:24:58.519Z,6.40
2023-03-07T01:30:00.831Z,6.32
2023-03-07T01:32:33.981Z,8.20
2023-03-07T01:35:05.703Z,6.07
2023-03-07T01:37:37.605Z,6.50
2023-03-07T01:40:11.735Z,4.45
2023-03-07T01:42:43.610Z,7.40
2023-03-07T01:45:15.226Z,8.23
2023-03-07T01:47:49.564Z,4.57
2023-03-07T01:50:21.530Z,3.30
2023-03-07T01:53:04.667Z,3.65
2023-03-07T01:55:37.391Z,5.28
2023-03-07T01:58:17.994Z,9.82
2023-03-07T02:00:49.047Z,13.10
2023-03-07T02:06:05.405Z,5.10
2023-03-07T02:08:37.898Z,5.45
2023-03-07T02:11:09.894Z,12.40
2023-03-07T02:13:41.602Z,12.00
2023-03-07T02:16:12.797Z,3.20
2023-03-07T02:18:47.983Z,2.13
2023-03-07T02:21:49.772Z,3.10
2023-03-07T02:27:15.819Z,3.22
2023-03-07T02:29:47.175Z,2.60
2023-03-07T02:32:18.839Z,3.17
2023-03-07T02:37:31.944Z,3.65
2023-03-07T02:40:08.893Z,7.38
2023-03-07T02:42:42.677Z,4.15
2023-03-07T02:45:19.800Z,4.68
2023-03-07T02:47:51.185Z,2.55
2023-03-07T02:50:22.660Z,3.42
2023-03-07T02:52:56.574Z,9.23
2023-03-07T02:55:28.101Z,4.72
2023-03-07T02:58:03.932Z,4.00
2023-03-07T03:03:06.258Z,3.87
2023-03-07T03:05:37.578Z,2.92
2023-03-07T03:08:08.823Z,3.88
2023-03-07T03:10:40.533Z,1.65
2023-03-07T03:13:12.098Z,3.38
2023-03-07T03:15:45.602Z,3.58
2023-03-07T03:18:17.334Z,3.35
2023-03-07T03:20:48.766Z,2.63
2023-03-07T03:23:19.960Z,4.25
2023-03-07T03:26:02.064Z,3.85
2023-03-07T03:28:36.553Z,9.02
2023-03-07T03:31:16.541Z,4.25
2023-03-07T03:33:48.470Z,4.47
2023-03-07T03:36:20.253Z,2.00
2023-03-07T03:38:54.959Z,2.20
2023-03-07T03:41:27.495Z,3.55
2023-03-07T03:46:32.580Z,2.83
2023-03-07T03:49:05.072Z,3.30
2023-03-07T03:51:37.492Z,3.55
2023-03-07T03:54:08.808Z,4.53
2023-03-07T03:56:40.861Z,3.88
2023-03-07T03:59:12.531Z,3.95
2023-03-07T04:01:44.298Z,2.78
2023-03-07T04:04:15.425Z,3.00
2023-03-07T04:06:46.883Z,5.38
2023-03-07T04:09:21.276Z,2.75
2023-03-07T04:11:53.585Z,3.28
2023-03-07T04:14:25.395Z,2.25
2023-03-07T04:16:57.171Z,4.93
2023-03-07T04:19:29.567Z,2.78
2023-03-07T04:22:01.821Z,3.17
2023-03-07T04:24:32.962Z,4.03
2023-03-07T04:27:04.422Z,2.35
2023-03-07T04:32:20.321Z,2.83
2023-03-07T04:34:52.477Z,5.40
2023-03-07T04:37:23.618Z,3.20
2023-03-07T04:39:54.980Z,3.85
2023-03-07T04:42:26.333Z,6.43
2023-03-07T04:44:57.468Z,1.45
2023-03-07T04:47:29.223Z,2.08
2023-03-07T04:50:00.373Z,2.85
2023-03-07T04:52:33.668Z,5.60
2023-03-07T04:55:05.068Z,1.38
2023-03-07T04:57:36.659Z,2.30
2023-03-07T05:00:10.745Z,1.92
2023-03-07T05:02:43.192Z,1.63
2023-03-07T05:05:15.078Z,2.28
2023-03-07T05:07:47.000Z,2.15
2023-03-07T05:10:18.928Z,1.27
2023-03-07T05:12:50.261Z,1.25
2023-03-07T05:17:52.669Z,3.15
2023-03-07T05:20:25.196Z,3.22
2023-03-07T05:22:56.931Z,2.08
2023-03-07T05:25:28.576Z,2.58
2023-03-07T05:28:02.127Z,2.33
2023-03-07T05:30:33.713Z,1.65
2023-03-07T05:33:05.393Z,2.80
2023-03-07T05:38:07.952Z,3.45
2023-03-07T05:40:40.331Z,3.65
2023-03-07T05:43:13.496Z,1.85
2023-03-07T05:45:45.075Z,2.10
2023-03-07T05:48:16.098Z,3.42
2023-03-07T05:50:47.541Z,2.88
2023-03-07T05:53:20.848Z,2.28
2023-03-07T05:55:52.965Z,4.00
2023-03-07T05:58:24.804Z,3.30
2023-03-07T06:00:56.206Z,2.40
2023-03-07T06:03:27.658Z,2.78
2023-03-07T06:05:59.518Z,2.95
2023-03-07T06:08:31.169Z,3.25
2023-03-07T06:11:02.463Z,3.33
2023-03-07T06:13:33.971Z,2.92
2023-03-07T06:16:05.552Z,3.83
2023-03-07T06:18:39.545Z,4.18
2023-03-07T06:21:11.374Z,5.53
2023-03-07T06:23:47.158Z,2.90
2023-03-07T06:26:23.804Z,3.47
2023-03-07T06:28:58.593Z,4.78
2023-03-07T06:31:33.670Z,5.75
2023-03-07T06:34:06.303Z,5.43
2023-03-07T06:36:37.954Z,4.75
2023-03-07T06:39:09.273Z,5.85
2023-03-07T06:41:41.901Z,3.55
2023-03-07T06:44:13.087Z,2.72
2023-03-07T06:46:44.726Z,4.82
2023-03-07T06:49:18.874Z,2.75
2023-03-07T06:51:52.086Z,4.70
2023-03-07T06:54:23.845Z,3.22
2023-03-07T06:56:56.614Z,2.38
2023-03-07T06:59:28.461Z,3.80
2023-03-07T07:04:31.223Z,4.93
2023-03-07T07:07:02.365Z,4.97
2023-03-07T07:09:33.547Z,2.92
2023-03-07T07:14:38.763Z,2.72
2023-03-07T07:17:13.118Z,3.80
2023-03-07T07:22:19.175Z,5.40
2023-03-07T07:24:53.382Z,4.32
2023-03-07T07:29:56.628Z,6.28
2023-03-07T07:32:27.939Z,2.35
2023-03-07T07:34:59.335Z,6.57
2023-03-07T07:37:40.634Z,4.80
2023-03-07T07:40:12.843Z,4.93
2023-03-07T07:42:44.942Z,3.47
2023-03-07T07:45:40.273Z,4.28
2023-03-07T07:48:14.532Z,4.00
2023-03-07T07:50:46.300Z,2.65
2023-03-07T07:53:19.274Z,2.85
2023-03-07T07:55:51.426Z,3.47
2023-03-07T07:58:22.531Z,3.60
2023-03-07T08:00:54.066Z,7.55
2023-03-07T08:03:25.387Z,4.20
2023-03-07T08:08:28.898Z,4.82
2023-03-07T08:11:00.243Z,4.68
2023-03-07T08:13:31.656Z,3.58
2023-03-07T08:16:02.827Z,4.80
2023-03-07T08:21:05.214Z,4.82
2023-03-07T08:23:37.172Z,5.90
2023-03-07T08:26:11.658Z,6.30
2023-03-07T08:28:43.724Z,5.28
2023-03-07T08:31:14.818Z,5.20
2023-03-07T08:33:46.049Z,5.13
2023-03-07T08:36:17.749Z,7.03
2023-03-07T08:38:56.050Z,6.50
2023-03-07T08:41:27.737Z,3.20
2023-03-07T08:43:59.447Z,4.47
2023-03-07T08:46:30.958Z,3.78
2023-03-07T08:49:02.857Z,4.10
2023-03-07T08:54:05.269Z,5.38
2023-03-07T08:56:36.545Z,5.10
2023-03-07T08:59:07.798Z,4.00
2023-03-07T09:01:41.050Z,6.55
2023-03-07T09:04:12.377Z,6.97
2023-03-07T09:06:43.841Z,2.80
2023-03-07T09:09:15.058Z,4.25
2023-03-07T09:11:46.424Z,4.40
2023-03-07T09:14:24.166Z,4.15
2023-03-07T09:16:55.428Z,4.60
2023-03-07T09:19:28.080Z,3.15
2023-03-07T09:22:00.473Z,6.10
2023-03-07T09:24:32.670Z,3.83
2023-03-07T09:27:04.079Z,6.82
2023-03-07T09:29:35.524Z,7.35
2023-03-07T09:32:07.238Z,14.27
2023-03-07T09:34:38.432Z,9.60
2023-03-07T09:39:41.223Z,5.28
2023-03-07T09:45:30.275Z,10.65
2023-03-07T09:48:31.011Z,10.73
2023-03-07T09:51:29.032Z,7.22
2023-03-07T09:54:21.348Z,10.00
2023-03-07T09:57:00.851Z,9.82
2023-03-07T09:59:53.512Z,5.03
2023-03-07T10:02:57.470Z,6.43
2023-03-07T10:05:51.961Z,4.75
2023-03-07T10:08:30.721Z,6.00
2023-03-07T10:11:07.931Z,4.57
2023-03-07T10:14:03.988Z,4.85
2023-03-07T10:16:52.552Z,7.05
2023-03-07T10:19:43.920Z,9.98
2023-03-07T10:22:28.862Z,12.48
2023-03-07T10:25:02.954Z,7.07
2023-03-07T10:27:34.864Z,6.60
2023-03-07T10:30:19.635Z,6.20
2023-03-07T10:33:01.349Z,5.38
2023-03-07T10:35:46.504Z,8.77
2023-03-07T10:38:34.240Z,3.92
2023-03-07T10:41:13.928Z,5.07
2023-03-07T10:43:46.082Z,8.23
2023-03-07T10:46:25.751Z,6.53
2023-03-07T10:49:10.566Z,5.53
2023-03-07T10:52:03.513Z,7.15
2023-03-07T10:54:39.428Z,5.43
2023-03-07T10:57:14.308Z,4.78
2023-03-07T10:59:49.845Z,12.02
2023-03-07T11:02:46.302Z,8.68
2023-03-07T11:05:34.286Z,5.85
2023-03-07T11:08:43.821Z,6.50
2023-03-07T11:11:29.029Z,7.28
2023-03-07T11:14:18.474Z,8.40
2023-03-07T11:17:00.848Z,5.60
2023-03-07T11:19:44.449Z,6.53
2023-03-07T11:22:28.439Z,6.82
2023-03-07T11:25:06.794Z,4.85
2023-03-07T11:27:48.556Z,6.30
2023-03-07T11:33:15.829Z,6.00
2023-03-07T11:36:14.653Z,8.25
2023-03-07T11:39:05.233Z,6.20
2023-03-07T11:42:05.206Z,6.97
2023-03-07T11:44:55.096Z,5.47
2023-03-07T11:47:51.503Z,6.07
2023-03-07T11:50:32.490Z,6.35
2023-03-07T11:53:03.506Z,6.63
2023-03-07T11:56:26.571Z,6.65
2023-03-07T11:59:20.031Z,7.03
2023-03-07T12:02:03.843Z,8.75
2023-03-07T12:04:43.066Z,6.07
2023-03-07T12:07:32.491Z,5.43
2023-03-07T12:10:09.980Z,6.82
2023-03-07T12:12:55.296Z,6.95
2023-03-07T12:16:04.519Z,6.20
2023-03-07T12:18:58.130Z,6.53
2023-03-07T12:21:50.429Z,4.88
2023-03-07T12:24:27.259Z,7.20
2023-03-07T12:27:35.045Z,7.05
2023-03-07T12:30:22.657Z,43.13
2023-03-07T12:32:54.453Z,30.10
2023-03-07T12:35:45.875Z,16.15
2023-03-07T12:38:33.485Z,16.77
2023-03-07T12:41:35.471Z,20.67
2023-03-07T12:44:12.773Z,26.13
2023-03-07T12:46:50.508Z,46.85
2023-03-07T12:49:47.839Z,44.97
2023-03-07T12:52:42.527Z,25.38
2023-03-07T12:55:20.053Z,13.82
2023-03-07T12:58:11.819Z,15.30
2023-03-07T13:00:48.531Z,9.85
2023-03-07T13:03:44.345Z,8.98
2023-03-07T13:06:21.890Z,8.77
2023-03-07T13:08:59.917Z,15.65
2023-03-07T13:11:35.474Z,13.20
2023-03-07T13:14:07.693Z,10.18
2023-03-07T13:16:41.546Z,8.70
2023-03-07T13:19:37.363Z,6.05
2023-03-07T13:22:18.067Z,12.20
2023-03-07T13:24:50.802Z,6.53
2023-03-07T13:27:33.619Z,9.68
2023-03-07T13:30:10.857Z,7.88
2023-03-07T13:32:53.846Z,5.93
2023-03-07T13:35:31.666Z,9.18
2023-03-07T13:38:07.698Z,20.42
2023-03-07T13:40:41.747Z,14.52
2023-03-07T13:43:22.043Z,15.02
2023-03-07T13:45:55.266Z,14.57
2023-03-07T13:48:32.832Z,17.30
2023-03-07T13:51:10.544Z,15.05
2023-03-07T13:53:47.892Z,10.82
2023-03-07T13:56:19.376Z,11.32
2023-03-07T13:59:12.176Z,18.50
2023-03-07T14:01:47.201Z,13.00
2023-03-07T14:04:40.317Z,20.63
2023-03-07T14:07:33.320Z,16.95
2023-03-07T14:10:32.381Z,10.07
2023-03-07T14:13:41.028Z,13.70
2023-03-07T14:16:33.100Z,11.00
2023-03-07T14:19:17.413Z,10.43
2023-03-07T14:22:20.000Z,9.30
2023-03-07T14:25:10.460Z,7.82
2023-03-07T14:28:22.281Z,10.43
2023-03-07T14:31:01.561Z,8.68
2023-03-07T14:33:33.934Z,9.00
2023-03-07T14:36:17.282Z,18.83
2023-03-07T14:38:49.348Z,21.48
2023-03-07T14:41:30.808Z,19.92
2023-03-07T14:44:19.629Z,20.05
2023-03-07T14:47:14.514Z,15.30
2023-03-07T14:49:59.628Z,17.40
2023-03-07T14:52:32.151Z,10.32
2023-03-07T14:55:05.830Z,9.13
2023-03-07T14:57:42.514Z,11.00
2023-03-07T15:00:27.277Z,10.05
2023-03-07T15:03:09.745Z,10.93
2023-03-07T15:05:53.365Z,9.13
2023-03-07T15:08:31.392Z,12.95
2023-03-07T15:11:08.722Z,14.25
2023-03-07T15:13:59.540Z,19.80
2023-03-07T15:16:36.643Z,19.85
2023-03-07T15:19:48.123Z,22.33
2023-03-07T15:22:25.537Z,13.07
2023-03-07T15:24:57.832Z,18.20
2023-03-07T15:27:33.158Z,21.48
2023-03-07T15:30:26.626Z,22.38
2023-03-07T15:35:39.053Z,14.20
2023-03-07T15:38:18.399Z,12.68
2023-03-07T15:40:49.961Z,11.38
2023-03-07T15:43:24.263Z,10.60
2023-03-07T15:46:15.425Z,7.43
2023-03-07T15:48:56.462Z,10.65
2023-03-07T15:51:29.579Z,9.18
2023-03-07T15:54:12.688Z,9.02
2023-03-07T15:56:43.978Z,7.07
2023-03-07T15:59:42.410Z,7.78
2023-03-07T16:02:47.581Z,8.55
2023-03-07T16:05:24.849Z,5.95
2023-03-07T16:08:04.541Z,5.47
2023-03-07T16:10:35.858Z,5.85
2023-03-07T16:13:07.100Z,9.52
2023-03-07T16:15:38.532Z,5.35
2023-03-07T16:18:10.507Z,5.50
2023-03-07T16:20:41.839Z,7.75
2023-03-07T16:23:15.591Z,6.55
2023-03-07T16:25:47.530Z,7.32
2023-03-07T16:28:18.850Z,5.68
2023-03-07T16:30:50.571Z,5.20
2023-03-07T16:35:52.914Z,8.25
2023-03-07T16:38:24.134Z,9.77
2023-03-07T16:40:55.376Z,5.97
2023-03-07T16:43:36.794Z,6.50
2023-03-07T16:46:13.935Z,6.45
2023-03-07T16:48:46.049Z,8.32
2023-03-07T16:51:19.618Z,6.70
2023-03-07T16:53:51.974Z,6.45
2023-03-07T16:56:31.500Z,10.07
2023-03-07T16:59:03.302Z,13.05
2023-03-07T17:01:34.908Z,11.77
2023-03-07T17:04:06.031Z,9.10
2023-03-07T17:06:39.395Z,5.87
2023-03-07T17:09:15.435Z,6.50
2023-03-07T17:11:51.463Z,7.65
2023-03-07T17:14:22.763Z,7.57
2023-03-07T17:16:54.332Z,6.85
2023-03-07T17:19:30.955Z,8.57
2023-03-07T17:22:04.378Z,7.50
2023-03-07T17:24:35.573Z,10.85
2023-03-07T17:29:45.758Z,8.57
2023-03-07T17:32:17.140Z,17.80
2023-03-07T17:34:48.234Z,14.27
2023-03-07T17:37:19.351Z,8.15
2023-03-07T17:39:50.635Z,8.82
2023-03-07T17:42:22.104Z,6.65
2023-03-07T17:44:53.458Z,6.43
2023-03-07T17:47:24.755Z,5.72
2023-03-07T17:49:55.890Z,5.90
2023-03-07T17:52:27.298Z,6.80
2023-03-07T17:54:58.803Z,7.72
2023-03-07T17:57:30.876Z,6.03
2023-03-07T18:00:02.176Z,5.97
2023-03-07T18:02:46.677Z,8.45
2023-03-07T18:05:17.971Z,5.75
2023-03-07T18:07:50.706Z,7.68
2023-03-07T18:10:22.290Z,5.47
2023-03-07T18:12:57.457Z,9.15
2023-03-07T18:15:29.325Z,7.57
2023-03-07T18:18:00.997Z,6.88
2023-03-07T18:20:33.019Z,6.55
2023-03-07T18:23:04.186Z,9.02
2023-03-07T18:25:35.660Z,9.68
2023-03-07T18:30:38.029Z,6.90
2023-03-07T18:33:09.240Z,6.10
2023-03-07T18:35:40.760Z,8.52
2023-03-07T18:38:12.252Z,7.68
2023-03-07T18:40:43.343Z,10.18
2023-03-07T18:43:15.032Z,8.60
2023-03-07T18:45:48.002Z,7.63
2023-03-07T18:48:19.334Z,5.85
2023-03-07T18:51:07.649Z,6.40
2023-03-07T18:53:39.878Z,8.18
2023-03-07T18:56:13.910Z,6.35
2023-03-07T18:58:45.750Z,7.47
2023-03-07T19:01:26.174Z,5.53
2023-03-07T19:04:00.632Z,6.85
2023-03-07T19:06:46.509Z,8.75
2023-03-07T19:09:19.904Z,6.78
2023-03-07T19:11:51.286Z,7.30
2023-03-07T19:14:22.604Z,6.82
2023-03-07T19:16:53.999Z,6.03
2023-03-07T19:19:25.132Z,8.60
2023-03-07T19:21:56.752Z,10.27
2023-03-07T19:24:28.237Z,8.02
2023-03-07T19:27:00.457Z,10.18
2023-03-07T19:29:33.634Z,15.52
2023-03-07T19:32:04.800Z,10.00
2023-03-07T19:34:36.045Z,16.53
2023-03-07T19:37:07.546Z,17.17
2023-03-07T19:39:39.099Z,14.55
2023-03-07T19:42:10.729Z,13.25
2023-03-07T19:44:42.215Z,15.02
2023-03-07T19:49:44.473Z,14.10
2023-03-07T19:52:16.268Z,9.68
2023-03-07T19:54:48.168Z,10.85
2023-03-07T19:59:57.834Z,9.73
2023-03-07T20:02:30.896Z,12.20
2023-03-07T20:05:02.329Z,12.07
2023-03-07T20:10:04.029Z,14.23
2023-03-07T20:12:35.675Z,8.43
2023-03-07T20:15:07.842Z,7.82
2023-03-07T20:17:39.246Z,12.15
2023-03-07T20:20:11.546Z,8.90
2023-03-07T20:22:43.782Z,8.50
2023-03-07T20:25:16.039Z,14.70
2023-03-07T20:27:47.569Z,10.40
2023-03-07T20:30:21.403Z,8.35
2023-03-07T20:32:53.084Z,9.20
2023-03-07T20:35:25.228Z,7.80
2023-03-07T20:37:56.909Z,8.13
2023-03-07T20:40:28.199Z,8.27
2023-03-07T20:45:30.206Z,7.40
2023-03-07T20:48:01.274Z,8.38
2023-03-07T20:50:32.412Z,7.50
2023-03-07T20:53:03.880Z,7.53
2023-03-07T20:55:35.018Z,8.27
2023-03-07T20:58:06.732Z,8.90
2023-03-07T21:00:38.311Z,7.70
2023-03-07T21:03:11.606Z,7.75
2023-03-07T21:05:43.175Z,7.68
2023-03-07T21:08:14.880Z,7.80
2023-03-07T21:10:46.096Z,5.40
2023-03-07T21:13:17.281Z,7.47
2023-03-07T21:15:55.860Z,5.82
2023-03-07T21:18:27.379Z,8.70
2023-03-07T21:21:03.119Z,5.43
2023-03-07T21:23:34.518Z,6.03
2023-03-07T21:26:14.330Z,9.15
2023-03-07T21:28:46.118Z,9.38
2023-03-07T21:31:24.380Z,10.93
2023-03-07T21:33:58.209Z,6.25
2023-03-07T21:36:30.792Z,4.43
2023-03-07T21:39:03.388Z,3.45
2023-03-07T21:41:34.450Z,3.67
2023-03-07T21:44:06.254Z,8.00
2023-03-07T21:46:37.508Z,2.95
2023-03-07T21:49:09.194Z,4.72
2023-03-07T21:54:10.805Z,5.20
2023-03-07T21:56:42.027Z,5.80
2023-03-07T21:59:14.416Z,4.53
2023-03-07T22:01:45.875Z,8.63
2023-03-07T22:04:17.178Z,3.67
2023-03-07T22:06:47.884Z,4.00
2023-03-07T22:09:19.241Z,12.10
2023-03-07T22:14:21.263Z,3.53
2023-03-07T22:16:52.868Z,5.10
2023-03-07T22:21:54.989Z,3.42
2023-03-07T22:24:26.131Z,47.15
2023-03-07T22:26:57.241Z,5.43
2023-03-07T22:29:28.368Z,7.68
2023-03-07T22:32:00.219Z,4.38
2023-03-07T22:34:31.903Z,7.32
2023-03-07T22:37:02.851Z,6.20
2023-03-07T22:39:34.012Z,6.03
2023-03-07T22:42:05.449Z,9.27
2023-03-07T22:47:07.828Z,5.57
2023-03-07T22:49:38.906Z,4.82
2023-03-07T22:52:09.933Z,3.67
2023-03-07T22:54:42.688Z,10.38
2023-03-07T22:57:14.108Z,3.90
2023-03-07T23:02:16.082Z,4.80
2023-03-07T23:04:47.328Z,5.88
2023-03-07T23:07:18.653Z,3.80
2023-03-07T23:09:49.657Z,3.10
2023-03-07T23:12:20.936Z,4.85
2023-03-07T23:14:52.404Z,4.20
2023-03-07T23:17:24.040Z,4.63
2023-03-07T23:19:55.154Z,2.72
2023-03-07T23:22:27.021Z,2.78
2023-03-07T23:24:58.337Z,3.60
2023-03-07T23:27:29.763Z,4.13
2023-03-07T23:30:01.222Z,4.40
2023-03-07T23:32:33.966Z,3.30
2023-03-07T23:35:05.584Z,2.15
2023-03-07T23:37:36.676Z,3.50
2023-03-07T23:40:08.728Z,5.10
2023-03-07T23:42:40.129Z,3.45
2023-03-07T23:45:12.069Z,2.58
2023-03-07T23:47:43.753Z,4.32
2023-03-07T23:52:46.411Z,5.07
2023-03-07T23:57:50.128Z,3.72
